sensor_id;sensor_type;location;lat;lon;timestamp;pressure;altitude;pressure_sealevel;temperature;humidity
74045;BME280;62389;51.412;5.436;2024-01-06T00:00:19;100208.84;;;6.20;100.00
74045;BME280;62389;51.412;5.436;2024-01-06T00:02:46;100212.28;;;6.20;100.00
74045;BME280;62389;51.412;5.436;2024-01-06T00:05:11;100207.94;;;6.21;100.00
74045;BME280;62389;51.412;5.436;2024-01-06T00:07:37;100207.94;;;6.21;100.00
74045;BME280;62389;51.412;5.436;2024-01-06T00:10:02;100211.50;;;6.18;100.00
74045;BME280;62389;51.412;5.436;2024-01-06T00:12:28;100222.00;;;6.15;100.00
74045;BME280;62389;51.412;5.436;2024-01-06T00:14:54;100223.81;;;6.13;100.00
74045;BME280;62389;51.412;5.436;2024-01-06T00:17:19;100227.28;;;6.12;100.00
74045;BME280;62389;51.412;5.436;2024-01-06T00:19:44;100235.94;;;6.13;100.00
74045;BME280;62389;51.412;5.436;2024-01-06T00:22:12;100232.53;;;6.11;100.00
74045;BME280;62389;51.412;5.436;2024-01-06T00:24:37;100230.84;;;6.10;100.00
74045;BME280;62389;51.412;5.436;2024-01-06T00:27:03;100233.44;;;6.10;100.00
74045;BME280;62389;51.412;5.436;2024-01-06T00:29:28;100237.78;;;6.09;100.00
74045;BME280;62389;51.412;5.436;2024-01-06T00:31:53;100242.19;;;6.07;100.00
74045;BME280;62389;51.412;5.436;2024-01-06T00:34:19;100240.47;;;6.06;100.00
74045;BME280;62389;51.412;5.436;2024-01-06T00:36:44;100240.59;;;6.03;100.00
74045;BME280;62389;51.412;5.436;2024-01-06T00:39:09;100239.78;;;6.01;100.00
74045;BME280;62389;51.412;5.436;2024-01-06T00:41:35;100245.13;;;5.98;100.00
74045;BME280;62389;51.412;5.436;2024-01-06T00:44:00;100251.25;;;5.95;100.00
74045;BME280;62389;51.412;5.436;2024-01-06T00:46:25;100240.00;;;5.95;100.00
74045;BME280;62389;51.412;5.436;2024-01-06T00:48:51;100240.97;;;5.92;100.00
74045;BME280;62389;51.412;5.436;2024-01-06T00:51:16;100246.16;;;5.91;100.00
74045;BME280;62389;51.412;5.436;2024-01-06T00:53:41;100244.53;;;5.88;100.00
74045;BME280;62389;51.412;5.436;2024-01-06T00:56:07;100248.06;;;5.86;100.00
74045;BME280;62389;51.412;5.436;2024-01-06T00:58:32;100244.69;;;5.84;100.00
74045;BME280;62389;51.412;5.436;2024-01-06T01:00:57;100252.47;;;5.84;100.00
74045;BME280;62389;51.412;5.436;2024-01-06T01:03:23;100253.38;;;5.83;100.00
74045;BME280;62389;51.412;5.436;2024-01-06T01:05:48;100253.31;;;5.84;100.00
74045;BME280;62389;51.412;5.436;2024-01-06T01:08:14;100261.16;;;5.83;100.00
74045;BME280;62389;51.412;5.436;2024-01-06T01:10:39;100263.78;;;5.81;100.00
74045;BME280;62389;51.412;5.436;2024-01-06T01:13:04;100265.69;;;5.76;100.00
74045;BME280;62389;51.412;5.436;2024-01-06T01:15:30;100273.69;;;5.70;100.00
74045;BME280;62389;51.412;5.436;2024-01-06T01:17:55;100272.06;;;5.67;100.00
74045;BME280;62389;51.412;5.436;2024-01-06T01:20:20;100279.03;;;5.65;100.00
74045;BME280;62389;51.412;5.436;2024-01-06T01:22:46;100288.56;;;5.65;100.00
74045;BME280;62389;51.412;5.436;2024-01-06T01:25:11;100289.53;;;5.62;100.00
74045;BME280;62389;51.412;5.436;2024-01-06T01:27:38;100292.97;;;5.61;100.00
74045;BME280;62389;51.412;5.436;2024-01-06T01:30:03;100298.16;;;5.61;100.00
74045;BME280;62389;51.412;5.436;2024-01-06T01:32:29;100303.41;;;5.60;100.00
74045;BME280;62389;51.412;5.436;2024-01-06T01:34:54;100300.91;;;5.57;100.00
74045;BME280;62389;51.412;5.436;2024-01-06T01:37:20;100302.66;;;5.56;100.00
74045;BME280;62389;51.412;5.436;2024-01-06T01:39:45;100295.78;;;5.55;100.00
74045;BME280;62389;51.412;5.436;2024-01-06T01:42:10;100294.94;;;5.55;100.00
74045;BME280;62389;51.412;5.436;2024-01-06T01:44:36;100304.53;;;5.53;100.00
74045;BME280;62389;51.412;5.436;2024-01-06T01:47:04;100312.44;;;5.48;100.00
74045;BME280;62389;51.412;5.436;2024-01-06T01:49:29;100308.25;;;5.44;100.00
74045;BME280;62389;51.412;5.436;2024-01-06T01:51:55;100312.63;;;5.42;100.00
74045;BME280;62389;51.412;5.436;2024-01-06T01:54:20;100316.09;;;5.41;100.00
74045;BME280;62389;51.412;5.436;2024-01-06T01:56:46;100323.00;;;5.42;100.00
74045;BME280;62389;51.412;5.436;2024-01-06T01:59:13;100320.44;;;5.40;100.00
74045;BME280;62389;51.412;5.436;2024-01-06T02:01:41;100324.78;;;5.40;100.00
74045;BME280;62389;51.412;5.436;2024-01-06T02:04:08;100330.06;;;5.37;100.00
74045;BME280;62389;51.412;5.436;2024-01-06T02:06:33;100331.09;;;5.31;100.00
74045;BME280;62389;51.412;5.436;2024-01-06T02:08:59;100339.00;;;5.27;100.00
74045;BME280;62389;51.412;5.436;2024-01-06T02:11:24;100338.22;;;5.25;100.00
74045;BME280;62389;51.412;5.436;2024-01-06T02:13:49;100339.00;;;5.27;100.00
74045;BME280;62389;51.412;5.436;2024-01-06T02:16:15;100338.13;;;5.28;100.00
74045;BME280;62389;51.412;5.436;2024-01-06T02:18:40;100344.88;;;5.33;100.00
74045;BME280;62389;51.412;5.436;2024-01-06T02:21:06;100348.41;;;5.31;100.00
74045;BME280;62389;51.412;5.436;2024-01-06T02:23:34;100349.31;;;5.30;100.00
74045;BME280;62389;51.412;5.436;2024-01-06T02:26:00;100355.47;;;5.26;100.00
74045;BME280;62389;51.412;5.436;2024-01-06T02:28:25;100365.84;;;5.26;100.00
74045;BME280;62389;51.412;5.436;2024-01-06T02:30:51;100369.25;;;5.28;100.00
74045;BME280;62389;51.412;5.436;2024-01-06T02:33:16;100367.44;;;5.30;100.00
74045;BME280;62389;51.412;5.436;2024-01-06T02:35:45;100370.81;;;5.33;100.00
74045;BME280;62389;51.412;5.436;2024-01-06T02:38:10;100375.03;;;5.36;100.00
74045;BME280;62389;51.412;5.436;2024-01-06T02:40:35;100382.81;;;5.36;100.00
74045;BME280;62389;51.412;5.436;2024-01-06T02:43:01;100384.53;;;5.37;100.00
74045;BME280;62389;51.412;5.436;2024-01-06T02:45:26;100383.66;;;5.38;100.00
74045;BME280;62389;51.412;5.436;2024-01-06T02:47:52;100397.53;;;5.35;100.00
74045;BME280;62389;51.412;5.436;2024-01-06T02:50:17;100402.72;;;5.35;100.00
74045;BME280;62389;51.412;5.436;2024-01-06T02:52:44;100407.13;;;5.33;100.00
74045;BME280;62389;51.412;5.436;2024-01-06T02:55:10;100415.03;;;5.29;100.00
74045;BME280;62389;51.412;5.436;2024-01-06T02:57:37;100416.81;;;5.27;100.00
74045;BME280;62389;51.412;5.436;2024-01-06T03:00:02;100429.88;;;5.24;100.00
74045;BME280;62389;51.412;5.436;2024-01-06T03:02:28;100429.16;;;5.18;100.00
74045;BME280;62389;51.412;5.436;2024-01-06T03:04:54;100429.22;;;5.15;100.00
74045;BME280;62389;51.412;5.436;2024-01-06T03:07:20;100433.56;;;5.15;100.00
74045;BME280;62389;51.412;5.436;2024-01-06T03:09:46;100441.34;;;5.15;100.00
74045;BME280;62389;51.412;5.436;2024-01-06T03:12:11;100434.47;;;5.14;100.00
74045;BME280;62389;51.412;5.436;2024-01-06T03:14:37;100441.41;;;5.13;100.00
74045;BME280;62389;51.412;5.436;2024-01-06T03:17:03;100440.53;;;5.13;100.00
74045;BME280;62389;51.412;5.436;2024-01-06T03:19:29;100446.66;;;5.10;100.00
74045;BME280;62389;51.412;5.436;2024-01-06T03:21:55;100451.88;;;5.09;100.00
74045;BME280;62389;51.412;5.436;2024-01-06T03:24:24;100455.41;;;5.06;100.00
74045;BME280;62389;51.412;5.436;2024-01-06T03:26:50;100454.59;;;5.04;100.00
74045;BME280;62389;51.412;5.436;2024-01-06T03:29:15;100454.53;;;5.06;100.00
74045;BME280;62389;51.412;5.436;2024-01-06T03:31:45;100453.75;;;5.04;100.00
74045;BME280;62389;51.412;5.436;2024-01-06T03:34:10;100455.56;;;5.00;100.00
74045;BME280;62389;51.412;5.436;2024-01-06T03:36:37;100459.91;;;5.00;100.00
74045;BME280;62389;51.412;5.436;2024-01-06T03:39:02;100462.56;;;4.97;100.00
74045;BME280;62389;51.412;5.436;2024-01-06T03:41:28;100462.63;;;4.95;100.00
74045;BME280;62389;51.412;5.436;2024-01-06T03:43:53;100470.38;;;4.95;100.00
74045;BME280;62389;51.412;5.436;2024-01-06T03:46:19;100472.97;;;4.95;100.00
74045;BME280;62389;51.412;5.436;2024-01-06T03:48:44;100477.38;;;4.93;100.00
74045;BME280;62389;51.412;5.436;2024-01-06T03:51:10;100478.25;;;4.92;100.00
74045;BME280;62389;51.412;5.436;2024-01-06T03:53:35;100478.34;;;4.89;100.00
74045;BME280;62389;51.412;5.436;2024-01-06T03:56:02;100492.19;;;4.88;100.00
74045;BME280;62389;51.412;5.436;2024-01-06T03:58:27;100488.78;;;4.86;100.00
74045;BME280;62389;51.412;5.436;2024-01-06T04:00:53;100486.28;;;4.83;100.00
74045;BME280;62389;51.412;5.436;2024-01-06T04:03:18;100491.41;;;4.84;100.00
74045;BME280;62389;51.412;5.436;2024-01-06T04:05:43;100494.78;;;4.86;100.00
74045;BME280;62389;51.412;5.436;2024-01-06T04:08:09;100500.03;;;4.85;100.00
74045;BME280;62389;51.412;5.436;2024-01-06T04:10:34;100497.50;;;4.82;100.00
74045;BME280;62389;51.412;5.436;2024-01-06T04:13:00;100494.97;;;4.80;100.00
74045;BME280;62389;51.412;5.436;2024-01-06T04:15:25;100501.00;;;4.81;100.00
74045;BME280;62389;51.412;5.436;2024-01-06T04:17:50;100497.66;;;4.76;100.00
74045;BME280;62389;51.412;5.436;2024-01-06T04:20:17;100501.16;;;4.75;100.00
74045;BME280;62389;51.412;5.436;2024-01-06T04:22:43;100503.69;;;4.76;100.00
74045;BME280;62389;51.412;5.436;2024-01-06T04:25:08;100508.03;;;4.76;100.00
74045;BME280;62389;51.412;5.436;2024-01-06T04:27:33;100509.88;;;4.71;100.00
74045;BME280;62389;51.412;5.436;2024-01-06T04:30:00;100511.72;;;4.65;100.00
74045;BME280;62389;51.412;5.436;2024-01-06T04:32:25;100515.28;;;4.63;100.00
74045;BME280;62389;51.412;5.436;2024-01-06T04:34:50;100516.19;;;4.60;100.00
74045;BME280;62389;51.412;5.436;2024-01-06T04:37:16;100521.44;;;4.57;100.00
74045;BME280;62389;51.412;5.436;2024-01-06T04:39:41;100522.25;;;4.59;100.00
74045;BME280;62389;51.412;5.436;2024-01-06T04:42:06;100524.88;;;4.58;100.00
74045;BME280;62389;51.412;5.436;2024-01-06T04:44:31;100529.19;;;4.59;100.00
74045;BME280;62389;51.412;5.436;2024-01-06T04:46:57;100537.72;;;4.62;100.00
74045;BME280;62389;51.412;5.436;2024-01-06T04:49:22;100537.72;;;4.62;100.00
74045;BME280;62389;51.412;5.436;2024-01-06T04:51:48;100534.34;;;4.59;100.00
74045;BME280;62389;51.412;5.436;2024-01-06T04:54:13;100541.28;;;4.58;100.00
74045;BME280;62389;51.412;5.436;2024-01-06T04:56:39;100541.28;;;4.58;100.00
74045;BME280;62389;51.412;5.436;2024-01-06T04:59:05;100550.00;;;4.54;100.00
74045;BME280;62389;51.412;5.436;2024-01-06T05:01:30;100548.31;;;4.53;100.00
74045;BME280;62389;51.412;5.436;2024-01-06T05:03:56;100554.34;;;4.54;100.00
74045;BME280;62389;51.412;5.436;2024-01-06T05:06:22;100550.91;;;4.53;100.00
74045;BME280;62389;51.412;5.436;2024-01-06T05:08:48;100563.00;;;4.53;100.00
74045;BME280;62389;51.412;5.436;2024-01-06T05:11:13;100567.25;;;4.55;100.00
74045;BME280;62389;51.412;5.436;2024-01-06T05:13:39;100562.09;;;4.54;100.00
74045;BME280;62389;51.412;5.436;2024-01-06T05:16:04;100569.13;;;4.49;100.00
74045;BME280;62389;51.412;5.436;2024-01-06T05:18:30;100569.22;;;4.44;100.00
74045;BME280;62389;51.412;5.436;2024-01-06T05:20:55;100579.59;;;4.44;100.00
74045;BME280;62389;51.412;5.436;2024-01-06T05:23:21;100577.00;;;4.44;100.00
74045;BME280;62389;51.412;5.436;2024-01-06T05:25:46;100580.44;;;4.45;100.00
74045;BME280;62389;51.412;5.436;2024-01-06T05:28:11;100577.03;;;4.43;100.00
74045;BME280;62389;51.412;5.436;2024-01-06T05:30:37;100583.13;;;4.40;100.00
74045;BME280;62389;51.412;5.436;2024-01-06T05:33:02;100586.66;;;4.36;100.00
74045;BME280;62389;51.412;5.436;2024-01-06T05:35:29;100587.66;;;4.32;100.00
74045;BME280;62389;51.412;5.436;2024-01-06T05:37:54;100592.88;;;4.29;100.00
74045;BME280;62389;51.412;5.436;2024-01-06T05:40:19;100598.09;;;4.26;100.00
74045;BME280;62389;51.412;5.436;2024-01-06T05:42:45;100593.81;;;4.25;100.00
74045;BME280;62389;51.412;5.436;2024-01-06T05:45:11;100602.47;;;4.24;100.00
74045;BME280;62389;51.412;5.436;2024-01-06T05:47:38;100604.19;;;4.25;100.00
74045;BME280;62389;51.412;5.436;2024-01-06T05:50:03;100602.44;;;4.25;100.00
74045;BME280;62389;51.412;5.436;2024-01-06T05:52:29;100611.19;;;4.20;100.00
74045;BME280;62389;51.412;5.436;2024-01-06T05:54:54;100607.81;;;4.16;100.00
74045;BME280;62389;51.412;5.436;2024-01-06T05:57:19;100613.88;;;4.15;100.00
74045;BME280;62389;51.412;5.436;2024-01-06T05:59:45;100611.34;;;4.13;100.00
74045;BME280;62389;51.412;5.436;2024-01-06T06:02:12;100610.47;;;4.13;100.00
74045;BME280;62389;51.412;5.436;2024-01-06T06:04:37;100619.06;;;4.15;100.00
74045;BME280;62389;51.412;5.436;2024-01-06T06:07:03;100624.22;;;4.15;100.00
74045;BME280;62389;51.412;5.436;2024-01-06T06:09:28;100623.38;;;4.14;100.00
74045;BME280;62389;51.412;5.436;2024-01-06T06:11:54;100626.91;;;4.10;100.00
74045;BME280;62389;51.412;5.436;2024-01-06T06:14:19;100633.03;;;4.08;100.00
74045;BME280;62389;51.412;5.436;2024-01-06T06:16:45;100631.25;;;4.10;100.00
74045;BME280;62389;51.412;5.436;2024-01-06T06:19:12;100639.81;;;4.13;100.00
74045;BME280;62389;51.412;5.436;2024-01-06T06:21:37;100646.63;;;4.18;100.00
74045;BME280;62389;51.412;5.436;2024-01-06T06:24:03;100648.31;;;4.19;100.00
74045;BME280;62389;51.412;5.436;2024-01-06T06:26:28;100654.44;;;4.14;100.00
74045;BME280;62389;51.412;5.436;2024-01-06T06:28:54;100654.50;;;4.11;100.00
74045;BME280;62389;51.412;5.436;2024-01-06T06:31:19;100660.59;;;4.09;100.00
74045;BME280;62389;51.412;5.436;2024-01-06T06:33:44;100661.44;;;4.09;100.00
74045;BME280;62389;51.412;5.436;2024-01-06T06:36:10;100665.72;;;4.10;100.00
74045;BME280;62389;51.412;5.436;2024-01-06T06:38:35;100671.75;;;4.12;100.00
74045;BME280;62389;51.412;5.436;2024-01-06T06:41:01;100661.41;;;4.12;100.00
74045;BME280;62389;51.412;5.436;2024-01-06T06:43:26;100666.59;;;4.11;100.00
74045;BME280;62389;51.412;5.436;2024-01-06T06:45:52;100683.97;;;4.04;100.00
74045;BME280;62389;51.412;5.436;2024-01-06T06:48:18;100686.72;;;3.97;100.00
74045;BME280;62389;51.412;5.436;2024-01-06T06:50:43;100696.28;;;3.93;100.00
74045;BME280;62389;51.412;5.436;2024-01-06T06:53:09;100696.31;;;3.92;100.00
74045;BME280;62389;51.412;5.436;2024-01-06T06:55:34;100698.91;;;3.90;100.00
74045;BME280;62389;51.412;5.436;2024-01-06T06:58:00;100701.50;;;3.90;100.00
74045;BME280;62389;51.412;5.436;2024-01-06T07:00:25;100704.16;;;3.87;100.00
74045;BME280;62389;51.412;5.436;2024-01-06T07:02:50;100710.16;;;3.89;100.00
74045;BME280;62389;51.412;5.436;2024-01-06T07:05:16;100711.00;;;3.89;100.00
74045;BME280;62389;51.412;5.436;2024-01-06T07:07:42;100715.34;;;3.87;100.00
74045;BME280;62389;51.412;5.436;2024-01-06T07:10:12;100717.91;;;3.89;100.00
74045;BME280;62389;51.412;5.436;2024-01-06T07:12:37;100730.81;;;3.92;100.00
74045;BME280;62389;51.412;5.436;2024-01-06T07:15:03;100733.41;;;3.92;100.00
74045;BME280;62389;51.412;5.436;2024-01-06T07:17:28;100729.91;;;3.93;100.00
74045;BME280;62389;51.412;5.436;2024-01-06T07:19:54;100741.09;;;3.95;100.00
74045;BME280;62389;51.412;5.436;2024-01-06T07:22:20;100739.38;;;3.94;100.00
74045;BME280;62389;51.412;5.436;2024-01-06T07:24:45;100749.78;;;3.91;100.00
74045;BME280;62389;51.412;5.436;2024-01-06T07:27:11;100750.69;;;3.88;100.00
74045;BME280;62389;51.412;5.436;2024-01-06T07:29:37;100757.69;;;3.83;100.00
74045;BME280;62389;51.412;5.436;2024-01-06T07:32:03;100753.47;;;3.76;100.00
74045;BME280;62389;51.412;5.436;2024-01-06T07:34:28;100759.50;;;3.78;100.00
74045;BME280;62389;51.412;5.436;2024-01-06T07:36:54;100757.75;;;3.79;100.00
74045;BME280;62389;51.412;5.436;2024-01-06T07:39:19;100754.31;;;3.78;100.00
74045;BME280;62389;51.412;5.436;2024-01-06T07:41:44;100761.25;;;3.76;100.00
74045;BME280;62389;51.412;5.436;2024-01-06T07:44:11;100758.66;;;3.78;100.00
74045;BME280;62389;51.412;5.436;2024-01-06T07:46:41;100762.00;;;3.81;100.00
74045;BME280;62389;51.412;5.436;2024-01-06T07:49:06;100770.59;;;3.85;100.00
74045;BME280;62389;51.412;5.436;2024-01-06T07:51:31;100767.06;;;3.89;100.00
74045;BME280;62389;51.412;5.436;2024-01-06T07:53:57;100773.94;;;3.92;100.00
74045;BME280;62389;51.412;5.436;2024-01-06T07:56:23;100779.91;;;3.95;100.00
74045;BME280;62389;51.412;5.436;2024-01-06T07:58:48;100779.91;;;3.97;100.00
74045;BME280;62389;51.412;5.436;2024-01-06T08:01:14;100797.03;;;4.01;100.00
74045;BME280;62389;51.412;5.436;2024-01-06T08:03:39;100787.50;;;4.04;100.00
74045;BME280;62389;51.412;5.436;2024-01-06T08:06:05;100801.25;;;4.06;100.00
74045;BME280;62389;51.412;5.436;2024-01-06T08:08:31;100794.34;;;4.08;100.00
74045;BME280;62389;51.412;5.436;2024-01-06T08:10:56;100802.97;;;4.09;100.00
74045;BME280;62389;51.412;5.436;2024-01-06T08:13:22;100806.44;;;4.06;100.00
74045;BME280;62389;51.412;5.436;2024-01-06T08:15:47;100812.56;;;4.02;100.00
74045;BME280;62389;51.412;5.436;2024-01-06T08:18:13;100822.94;;;4.02;100.00
74045;BME280;62389;51.412;5.436;2024-01-06T08:20:38;100825.56;;;3.99;100.00
74045;BME280;62389;51.412;5.436;2024-01-06T08:23:04;100836.78;;;3.98;100.00
74045;BME280;62389;51.412;5.436;2024-01-06T08:25:29;100830.72;;;3.99;100.00
74045;BME280;62389;51.412;5.436;2024-01-06T08:27:55;100836.66;;;4.06;100.00
74045;BME280;62389;51.412;5.436;2024-01-06T08:30:20;100836.69;;;4.04;100.00
74045;BME280;62389;51.412;5.436;2024-01-06T08:32:45;100844.47;;;4.01;100.00
74045;BME280;62389;51.412;5.436;2024-01-06T08:35:11;100848.94;;;3.93;100.00
74045;BME280;62389;51.412;5.436;2024-01-06T08:37:36;100850.69;;;3.91;100.00
74045;BME280;62389;51.412;5.436;2024-01-06T08:40:02;100849.84;;;3.92;100.00
74045;BME280;62389;51.412;5.436;2024-01-06T08:42:28;100850.69;;;3.91;100.00
74045;BME280;62389;51.412;5.436;2024-01-06T08:44:54;100850.66;;;3.94;100.00
74045;BME280;62389;51.412;5.436;2024-01-06T08:47:19;100855.78;;;3.96;100.00
74045;BME280;62389;51.412;5.436;2024-01-06T08:49:44;100859.22;;;3.98;100.00
74045;BME280;62389;51.412;5.436;2024-01-06T08:52:10;100863.53;;;3.99;100.00
74045;BME280;62389;51.412;5.436;2024-01-06T08:54:35;100867.78;;;4.01;100.00
74045;BME280;62389;51.412;5.436;2024-01-06T08:57:00;100871.22;;;4.03;100.00
74045;BME280;62389;51.412;5.436;2024-01-06T08:59:26;100876.38;;;4.03;100.00
74045;BME280;62389;51.412;5.436;2024-01-06T09:01:51;100875.59;;;3.98;100.00
74045;BME280;62389;51.412;5.436;2024-01-06T09:04:18;100884.28;;;3.94;100.00
74045;BME280;62389;51.412;5.436;2024-01-06T09:06:43;100884.28;;;3.94;100.00
74045;BME280;62389;51.412;5.436;2024-01-06T09:09:10;100893.78;;;3.94;100.00
74045;BME280;62389;51.412;5.436;2024-01-06T09:11:36;100891.25;;;3.92;100.00
74045;BME280;62389;51.412;5.436;2024-01-06T09:14:01;100896.41;;;3.92;100.00
74045;BME280;62389;51.412;5.436;2024-01-06T09:16:26;100911.94;;;3.90;100.00
74045;BME280;62389;51.412;5.436;2024-01-06T09:18:52;100908.56;;;3.85;100.00
74045;BME280;62389;51.412;5.436;2024-01-06T09:21:17;100911.22;;;3.81;100.00
74045;BME280;62389;51.412;5.436;2024-01-06T09:23:43;100914.75;;;3.77;100.00
74045;BME280;62389;51.412;5.436;2024-01-06T09:26:08;100918.25;;;3.71;100.00
74045;BME280;62389;51.412;5.436;2024-01-06T09:28:33;100914.88;;;3.66;100.00
74045;BME280;62389;51.412;5.436;2024-01-06T09:30:59;100921.72;;;3.70;100.00
74045;BME280;62389;51.412;5.436;2024-01-06T09:33:24;100928.56;;;3.74;100.00
74045;BME280;62389;51.412;5.436;2024-01-06T09:35:50;100926.81;;;3.78;100.00
74045;BME280;62389;51.412;5.436;2024-01-06T09:38:16;100925.91;;;3.80;100.00
74045;BME280;62389;51.412;5.436;2024-01-06T09:40:43;100928.47;;;3.80;100.00
74045;BME280;62389;51.412;5.436;2024-01-06T09:43:12;100935.34;;;3.81;100.00
74045;BME280;62389;51.412;5.436;2024-01-06T09:45:38;100943.13;;;3.81;100.00
74045;BME280;62389;51.412;5.436;2024-01-06T09:48:11;100950.03;;;3.81;100.00
74045;BME280;62389;51.412;5.436;2024-01-06T09:50:40;100948.31;;;3.80;100.00
74045;BME280;62389;51.412;5.436;2024-01-06T09:53:06;100956.97;;;3.79;100.00
74045;BME280;62389;51.412;5.436;2024-01-06T09:55:34;100956.97;;;3.79;100.00
74045;BME280;62389;51.412;5.436;2024-01-06T09:58:00;100975.13;;;3.77;100.00
74045;BME280;62389;51.412;5.436;2024-01-06T10:00:26;100968.22;;;3.75;100.00
74045;BME280;62389;51.412;5.436;2024-01-06T10:02:51;100972.59;;;3.73;100.00
74045;BME280;62389;51.412;5.436;2024-01-06T10:05:17;100976.91;;;3.72;100.00
74045;BME280;62389;51.412;5.436;2024-01-06T10:07:44;100977.75;;;3.73;100.00
74045;BME280;62389;51.412;5.436;2024-01-06T10:10:10;100976.00;;;3.75;100.00
74045;BME280;62389;51.412;5.436;2024-01-06T10:12:39;100989.72;;;3.80;100.00
74045;BME280;62389;51.412;5.436;2024-01-06T10:15:06;100989.72;;;3.80;100.00
74045;BME280;62389;51.412;5.436;2024-01-06T10:17:32;101000.06;;;3.80;100.00
74045;BME280;62389;51.412;5.436;2024-01-06T10:19:59;100991.50;;;3.78;100.00
74045;BME280;62389;51.412;5.436;2024-01-06T10:22:24;100992.38;;;3.77;100.00
74045;BME280;62389;51.412;5.436;2024-01-06T10:24:50;101001.81;;;3.79;100.00
74045;BME280;62389;51.412;5.436;2024-01-06T10:27:16;101000.06;;;3.80;100.00
74045;BME280;62389;51.412;5.436;2024-01-06T10:29:41;101000.97;;;3.79;100.00
74045;BME280;62389;51.412;5.436;2024-01-06T10:32:07;101001.84;;;3.78;100.00
74045;BME280;62389;51.412;5.436;2024-01-06T10:34:33;101001.81;;;3.79;100.00
74045;BME280;62389;51.412;5.436;2024-01-06T10:36:59;101005.22;;;3.83;100.00
74045;BME280;62389;51.412;5.436;2024-01-06T10:39:24;101005.19;;;3.84;100.00
74045;BME280;62389;51.412;5.436;2024-01-06T10:41:52;101005.16;;;3.86;100.00
74045;BME280;62389;51.412;5.436;2024-01-06T10:44:17;101006.00;;;3.88;100.00
74045;BME280;62389;51.412;5.436;2024-01-06T10:46:44;101008.53;;;3.91;100.00
74045;BME280;62389;51.412;5.436;2024-01-06T10:49:10;101009.44;;;3.92;100.00
74045;BME280;62389;51.412;5.436;2024-01-06T10:51:37;101014.56;;;3.93;100.00
74045;BME280;62389;51.412;5.436;2024-01-06T10:54:03;101017.19;;;3.92;100.00
74045;BME280;62389;51.412;5.436;2024-01-06T10:56:29;101020.66;;;3.89;100.00
74045;BME280;62389;51.412;5.436;2024-01-06T10:58:55;101011.16;;;3.89;100.00
74045;BME280;62389;51.412;5.436;2024-01-06T11:01:23;101021.59;;;3.83;100.00
74045;BME280;62389;51.412;5.436;2024-01-06T11:03:49;101021.59;;;3.83;100.00
74045;BME280;62389;51.412;5.436;2024-01-06T11:06:16;101021.59;;;3.83;100.00
74045;BME280;62389;51.412;5.436;2024-01-06T11:09:27;101028.53;;;3.80;100.00
74045;BME280;62389;51.412;5.436;2024-01-06T11:11:31;101030.31;;;3.78;100.00
74045;BME280;62389;51.412;5.436;2024-01-06T11:16:46;101029.41;;;3.79;100.00
74045;BME280;62389;51.412;5.436;2024-01-06T11:24:57;101038.84;;;3.83;100.00
74045;BME280;62389;51.412;5.436;2024-01-06T11:27:28;101042.28;;;3.83;100.00
74045;BME280;62389;51.412;5.436;2024-01-06T11:29:55;101033.66;;;3.84;100.00
74045;BME280;62389;51.412;5.436;2024-01-06T11:32:33;101043.16;;;3.84;100.00
74045;BME280;62389;51.412;5.436;2024-01-06T11:35:14;101036.28;;;3.83;100.00
74045;BME280;62389;51.412;5.436;2024-01-06T11:43:07;101034.56;;;3.82;100.00
74045;BME280;62389;51.412;5.436;2024-01-06T11:45:37;101037.13;;;3.83;100.00
74045;BME280;62389;51.412;5.436;2024-01-06T11:48:04;101043.13;;;3.87;100.00
74045;BME280;62389;51.412;5.436;2024-01-06T11:50:35;101043.16;;;3.84;100.00
74045;BME280;62389;51.412;5.436;2024-01-06T11:53:02;101043.19;;;3.81;100.00
74045;BME280;62389;51.412;5.436;2024-01-06T11:55:28;101039.72;;;3.83;100.00
74045;BME280;62389;51.412;5.436;2024-01-06T11:57:55;101043.13;;;3.87;100.00
74045;BME280;62389;51.412;5.436;2024-01-06T12:00:21;101031.84;;;3.91;100.00
74045;BME280;62389;51.412;5.436;2024-01-06T12:02:47;101034.38;;;3.94;100.00
74045;BME280;62389;51.412;5.436;2024-01-06T12:05:16;101041.28;;;3.97;100.00
74045;BME280;62389;51.412;5.436;2024-01-06T12:08:04;101042.13;;;3.96;100.00
74045;BME280;62389;51.412;5.436;2024-01-06T12:10:31;101035.25;;;3.95;100.00
74045;BME280;62389;51.412;5.436;2024-01-06T12:13:07;101035.25;;;3.95;100.00
74045;BME280;62389;51.412;5.436;2024-01-06T12:15:36;101041.28;;;3.95;100.00
74045;BME280;62389;51.412;5.436;2024-01-06T12:18:05;101037.88;;;3.93;100.00
74045;BME280;62389;51.412;5.436;2024-01-06T12:20:30;101041.34;;;3.92;100.00
74045;BME280;62389;51.412;5.436;2024-01-06T12:22:56;101039.66;;;3.86;100.00
74045;BME280;62389;51.412;5.436;2024-01-06T12:25:22;101041.44;;;3.83;100.00
74045;BME280;62389;51.412;5.436;2024-01-06T12:27:49;101051.00;;;3.78;100.00
74045;BME280;62389;51.412;5.436;2024-01-06T12:30:15;101047.53;;;3.79;100.00
74045;BME280;62389;51.412;5.436;2024-01-06T12:32:42;101046.66;;;3.80;100.00
74045;BME280;62389;51.412;5.436;2024-01-06T12:35:09;101046.63;;;3.83;100.00
74045;BME280;62389;51.412;5.436;2024-01-06T12:37:35;101044.00;;;3.84;100.00
74045;BME280;62389;51.412;5.436;2024-01-06T12:40:01;101050.03;;;3.85;100.00
74045;BME280;62389;51.412;5.436;2024-01-06T12:42:26;101037.97;;;3.84;100.00
74045;BME280;62389;51.412;5.436;2024-01-06T12:44:52;101047.50;;;3.80;100.00
74045;BME280;62389;51.412;5.436;2024-01-06T12:47:17;101048.41;;;3.78;100.00
74045;BME280;62389;51.412;5.436;2024-01-06T12:49:43;101051.09;;;3.69;100.00
74045;BME280;62389;51.412;5.436;2024-01-06T12:52:09;101057.19;;;3.64;100.00
74045;BME280;62389;51.412;5.436;2024-01-06T12:54:34;101055.44;;;3.67;100.00
74045;BME280;62389;51.412;5.436;2024-01-06T12:56:59;101052.84;;;3.68;100.00